Portada
METAR-TAF:

METAR-TAF

Aeroports :

Juliaca, Perú

latitud: 15-29S, longitud: 070-09W, altitud: 3826 m

Observació

L'informe es va fer fa 58 minuts, a les 12:00 UTC
Vent 2 kt del Nord-Oest
Temperatura 7°C
Humitat 81%
Pressió 1035 hPa
Visibilitat 10 km o més
Escasses núvols a una alçada de 2000 ft
Núvols disperses a una alçada de 8000 ft

METAR: SPJL 021200Z 32002KT 9999 FEW020 SCT080 07/04 Q1035 RMK TN5.3 PP000

Hora: 07:58 (12:58 UTC)

Pronòstic

L'informe es va fer fa 1 hora i 30 minuts, a les 11:28 UTC
Pronòstic vàlid del 02 a les 12 UTC al 03 a les 12 UTC
Vent 5 kt del Nord-Est
Visibilitat 10 km o més
Núvols disperses a una alçada de 2000 ft
Cel ennuvolat a una alçada de 8000 ft
Evolucionant progressivament
l' 02 a les 19 UTC al 02 a les 22 UTC
Vent 12 kt del Est
pluja
Evolucionant progressivament
l' 02 a les 23 UTC al 03 a les 02 UTC
Vent 5 kt del Nord

TAF: SPJL 021128Z 0212/0312 04005KT 9999 SCT020 BKN080 TX20/0219Z TN06/0310Z BECMG 0219/0222 10012KT RA BECMG 0223/0302 01005KT NSW

Observacions i pronòstics meteorològics de més de 4000 aeroports (METAR i TAF).

Les estacions disponibles són els punts grocs i vermells al mapa.

Posi el ratolí al punt desitjat per veure el nom de l'estació.

Feu clic per veure les observacions i els pronòstics meteorològics.

Per canviar el mapa: feu clic els botons verds amb una creu de color negre per apropar; al botó verd amb un guió per allunyar la imatge; o en les fletxes verdes per a mapes adjacents.


METAR-TAF: